createdAt,value
2023-02-06T00:01:01.695Z,4.65
2023-02-06T00:03:29.961Z,5.38
2023-02-06T00:05:59.369Z,5.43
2023-02-06T00:08:28.226Z,5.28
2023-02-06T00:10:56.438Z,5.40
2023-02-06T00:13:24.680Z,4.68
2023-02-06T00:15:54.193Z,4.63
2023-02-06T00:18:22.367Z,5.00
2023-02-06T00:20:50.551Z,5.05
2023-02-06T00:23:18.737Z,5.03
2023-02-06T00:25:47.116Z,4.65
2023-02-06T00:28:15.333Z,3.97
2023-02-06T00:30:46.558Z,4.50
2023-02-06T00:35:44.114Z,4.32
2023-02-06T00:38:12.581Z,4.30
2023-02-06T00:40:40.877Z,4.45
2023-02-06T00:43:09.222Z,4.05
2023-02-06T00:45:37.537Z,4.57
2023-02-06T00:48:05.863Z,4.35
2023-02-06T00:50:35.424Z,4.55
2023-02-06T00:53:03.711Z,4.70
2023-02-06T00:55:31.867Z,4.20
2023-02-06T00:57:59.957Z,3.90
2023-02-06T01:00:28.092Z,4.20
2023-02-06T01:02:56.271Z,4.07
2023-02-06T01:05:24.419Z,4.15
2023-02-06T01:07:53.950Z,3.80
2023-02-06T01:10:22.103Z,3.80
2023-02-06T01:12:50.266Z,4.15
2023-02-06T01:15:18.418Z,4.07
2023-02-06T01:17:46.560Z,4.07
2023-02-06T01:20:15.984Z,4.55
2023-02-06T01:22:44.137Z,3.72
2023-02-06T01:25:13.712Z,3.90
2023-02-06T01:27:41.899Z,4.30
2023-02-06T01:30:11.304Z,3.67
2023-02-06T01:32:40.514Z,4.32
2023-02-06T01:35:10.591Z,3.75
2023-02-06T01:37:39.540Z,3.38
2023-02-06T01:40:10.259Z,3.53
2023-02-06T01:42:39.916Z,3.17
2023-02-06T01:45:37.628Z,3.65
2023-02-06T01:48:09.632Z,3.40
2023-02-06T01:50:40.520Z,3.72
2023-02-06T01:53:09.644Z,3.75
2023-02-06T01:55:41.408Z,3.17
2023-02-06T01:58:16.217Z,3.70
2023-02-06T02:00:44.734Z,3.92
2023-02-06T02:03:13.206Z,3.60
2023-02-06T02:05:43.245Z,3.75
2023-02-06T02:08:16.138Z,3.38
2023-02-06T02:10:44.566Z,3.50
2023-02-06T02:13:14.117Z,3.83
2023-02-06T02:15:57.642Z,3.30
2023-02-06T02:18:43.077Z,3.60
2023-02-06T02:21:43.321Z,3.25
2023-02-06T02:24:20.032Z,3.38
2023-02-06T02:27:14.993Z,3.30
2023-02-06T02:30:15.479Z,3.42
2023-02-06T02:33:36.476Z,3.28
2023-02-06T02:36:15.087Z,3.40
2023-02-06T02:38:55.414Z,3.47
2023-02-06T02:41:28.919Z,3.30
2023-02-06T02:44:02.977Z,3.72
2023-02-06T02:46:35.929Z,2.92
2023-02-06T02:49:07.126Z,3.33
2023-02-06T02:54:05.642Z,3.25
2023-02-06T02:56:34.617Z,3.03
2023-02-06T02:59:09.125Z,3.05
2023-02-06T03:01:42.044Z,2.90
2023-02-06T03:04:16.926Z,3.00
2023-02-06T03:07:00.902Z,3.17
2023-02-06T03:09:40.341Z,3.35
2023-02-06T03:12:14.289Z,2.70
2023-02-06T03:14:46.988Z,3.03
2023-02-06T03:17:20.308Z,3.10
2023-02-06T03:19:53.812Z,2.70
2023-02-06T03:22:24.554Z,3.28
2023-02-06T03:24:54.483Z,3.00
2023-02-06T03:27:24.671Z,3.03
2023-02-06T03:29:55.812Z,3.00
2023-02-06T03:32:27.019Z,3.20
2023-02-06T03:37:28.780Z,2.92
2023-02-06T03:40:00.402Z,2.65
2023-02-06T03:42:31.545Z,2.97
2023-02-06T03:47:31.773Z,2.70
2023-02-06T03:50:01.936Z,2.92
2023-02-06T03:52:37.043Z,2.92
2023-02-06T03:55:11.048Z,2.72
2023-02-06T03:57:40.308Z,2.92
2023-02-06T04:00:09.749Z,2.70
2023-02-06T04:02:39.396Z,3.13
2023-02-06T04:05:08.548Z,2.72
2023-02-06T04:07:38.187Z,2.42
2023-02-06T04:10:07.087Z,3.10
2023-02-06T04:12:35.245Z,2.58
2023-02-06T04:15:03.410Z,2.60
2023-02-06T04:17:46.420Z,3.20
2023-02-06T04:20:18.227Z,3.00
2023-02-06T04:22:48.128Z,2.53
2023-02-06T04:25:16.337Z,2.70
2023-02-06T04:27:44.526Z,3.15
2023-02-06T04:30:14.141Z,2.70
2023-02-06T04:32:42.329Z,3.10
2023-02-06T04:35:10.860Z,2.63
2023-02-06T04:37:39.008Z,2.78
2023-02-06T04:40:09.169Z,2.33
2023-02-06T04:42:37.476Z,2.72
2023-02-06T04:45:06.047Z,2.88
2023-02-06T04:47:34.175Z,3.08
2023-02-06T04:50:02.374Z,2.88
2023-02-06T04:52:30.501Z,2.90
2023-02-06T04:54:58.644Z,2.65
2023-02-06T04:57:28.175Z,2.70
2023-02-06T04:59:56.312Z,2.67
2023-02-06T05:02:24.497Z,2.65
2023-02-06T05:04:52.664Z,2.50
2023-02-06T05:07:20.976Z,2.33
2023-02-06T05:09:49.117Z,2.47
2023-02-06T05:12:17.402Z,2.65
2023-02-06T05:14:46.991Z,2.40
2023-02-06T05:17:15.108Z,2.72
2023-02-06T05:19:43.390Z,2.30
2023-02-06T05:22:11.614Z,2.55
2023-02-06T05:24:39.765Z,2.35
2023-02-06T05:27:07.909Z,2.38
2023-02-06T05:29:35.993Z,2.67
2023-02-06T05:32:05.753Z,2.38
2023-02-06T05:34:33.888Z,2.40
2023-02-06T05:37:01.993Z,2.58
2023-02-06T05:39:30.273Z,2.70
2023-02-06T05:41:58.374Z,2.20
2023-02-06T05:44:26.592Z,2.15
2023-02-06T05:46:54.665Z,2.30
2023-02-06T05:49:24.228Z,2.50
2023-02-06T05:51:52.433Z,2.83
2023-02-06T05:54:20.589Z,2.78
2023-02-06T05:56:48.787Z,2.08
2023-02-06T05:59:17.002Z,2.28
2023-02-06T06:01:45.136Z,2.60
2023-02-06T06:04:13.308Z,2.25
2023-02-06T06:06:42.945Z,2.17
2023-02-06T06:09:11.112Z,2.22
2023-02-06T06:11:39.497Z,2.30
2023-02-06T06:14:08.007Z,2.00
2023-02-06T06:16:36.131Z,2.10
2023-02-06T06:19:04.818Z,2.28
2023-02-06T06:21:33.964Z,2.13
2023-02-06T06:24:03.687Z,2.30
2023-02-06T06:26:32.319Z,2.30
2023-02-06T06:29:00.635Z,2.28
2023-02-06T06:31:28.992Z,2.33
2023-02-06T06:33:57.137Z,2.28
2023-02-06T06:36:25.297Z,2.05
2023-02-06T06:38:53.413Z,2.15
2023-02-06T06:41:22.954Z,2.17
2023-02-06T06:43:51.653Z,2.08
2023-02-06T06:46:20.061Z,2.53
2023-02-06T06:48:48.295Z,2.20
2023-02-06T06:51:16.432Z,2.20
2023-02-06T06:53:44.568Z,1.98
2023-02-06T06:56:14.526Z,2.50
2023-02-06T06:58:44.119Z,2.20
2023-02-06T07:01:12.410Z,2.20
2023-02-06T07:03:44.130Z,2.17
2023-02-06T07:06:12.575Z,2.40
2023-02-06T07:08:42.035Z,2.03
2023-02-06T07:11:10.614Z,2.20
2023-02-06T07:13:39.125Z,1.98
2023-02-06T07:16:09.546Z,2.60
2023-02-06T07:18:38.543Z,2.53
2023-02-06T07:21:08.702Z,2.30
2023-02-06T07:23:38.338Z,2.67
2023-02-06T07:26:07.234Z,3.05
2023-02-06T07:28:35.701Z,3.20
2023-02-06T07:31:04.509Z,3.00
2023-02-06T07:33:35.160Z,3.38
2023-02-06T07:36:04.122Z,3.42
2023-02-06T07:38:32.716Z,3.28
2023-02-06T07:41:03.185Z,3.10
2023-02-06T07:43:31.565Z,2.90
2023-02-06T07:46:01.894Z,2.95
2023-02-06T07:48:30.316Z,3.50
2023-02-06T07:51:06.007Z,3.38
2023-02-06T07:53:34.945Z,4.53
2023-02-06T07:56:03.712Z,4.72
2023-02-06T07:58:31.807Z,4.88
2023-02-06T08:01:04.894Z,4.68
2023-02-06T08:03:33.281Z,5.38
2023-02-06T08:06:07.942Z,4.70
2023-02-06T08:08:36.082Z,4.63
2023-02-06T08:11:07.171Z,4.30
2023-02-06T08:16:06.161Z,4.30
2023-02-06T08:18:34.473Z,4.32
2023-02-06T08:21:05.290Z,4.40
2023-02-06T08:23:33.859Z,4.75
2023-02-06T08:26:06.378Z,4.07
2023-02-06T08:28:36.062Z,3.88
2023-02-06T08:31:10.356Z,4.20
2023-02-06T08:33:38.713Z,4.00
2023-02-06T08:36:10.206Z,4.38
2023-02-06T08:38:38.659Z,3.80
2023-02-06T08:41:14.858Z,4.20
2023-02-06T08:43:43.025Z,4.07
2023-02-06T08:46:11.207Z,3.70
2023-02-06T08:48:39.393Z,3.70
2023-02-06T08:51:10.563Z,3.45
2023-02-06T08:56:09.755Z,3.42
2023-02-06T08:58:39.077Z,3.55
2023-02-06T09:01:08.431Z,3.72
2023-02-06T09:03:37.104Z,3.38
2023-02-06T09:06:10.324Z,3.05
2023-02-06T09:08:40.781Z,3.47
2023-02-06T09:11:09.788Z,2.90
2023-02-06T09:13:38.396Z,3.10
2023-02-06T09:16:07.803Z,2.72
2023-02-06T09:18:36.226Z,2.80
2023-02-06T09:21:07.375Z,3.20
2023-02-06T09:26:06.082Z,2.80
2023-02-06T09:28:34.823Z,2.75
2023-02-06T09:31:03.052Z,3.03
2023-02-06T09:33:31.197Z,3.03
2023-02-06T09:36:07.270Z,3.22
2023-02-06T09:38:36.254Z,2.90
2023-02-06T09:41:14.139Z,3.20
2023-02-06T09:43:52.814Z,3.05
2023-02-06T09:46:27.017Z,3.33
2023-02-06T09:48:58.300Z,3.20
2023-02-06T09:51:35.452Z,3.53
2023-02-06T09:54:10.141Z,3.22
2023-02-06T09:56:48.074Z,3.35
2023-02-06T09:59:24.541Z,3.13
2023-02-06T10:02:03.478Z,3.28
2023-02-06T10:04:41.457Z,3.10
2023-02-06T10:07:30.085Z,3.05
2023-02-06T10:10:03.296Z,3.20
2023-02-06T10:12:38.797Z,3.20
2023-02-06T10:15:14.950Z,2.83
2023-02-06T10:17:49.999Z,3.53
2023-02-06T10:20:23.083Z,2.90
2023-02-06T10:23:04.850Z,3.42
2023-02-06T10:25:37.176Z,3.10
2023-02-06T10:28:22.606Z,3.13
2023-02-06T10:31:05.577Z,4.20
2023-02-06T10:33:43.382Z,3.13
2023-02-06T10:36:26.498Z,3.47
2023-02-06T10:39:23.340Z,2.83
2023-02-06T10:42:00.983Z,2.67
2023-02-06T10:44:35.520Z,3.13
2023-02-06T10:47:05.810Z,3.45
2023-02-06T10:49:39.458Z,2.97
2023-02-06T10:52:17.517Z,3.00
2023-02-06T10:54:52.762Z,2.80
2023-02-06T10:57:24.986Z,2.70
2023-02-06T10:59:59.398Z,2.90
2023-02-06T11:02:35.236Z,3.22
2023-02-06T11:05:10.301Z,2.80
2023-02-06T11:07:43.252Z,3.10
2023-02-06T11:10:15.853Z,2.38
2023-02-06T11:12:48.767Z,2.55
2023-02-06T11:15:26.641Z,2.88
2023-02-06T11:17:55.625Z,3.08
2023-02-06T11:20:28.333Z,2.60
2023-02-06T11:22:56.564Z,2.97
2023-02-06T11:25:31.205Z,2.83
2023-02-06T11:28:01.707Z,3.00
2023-02-06T11:30:37.243Z,3.05
2023-02-06T11:33:08.375Z,2.55
2023-02-06T11:35:40.198Z,2.67
2023-02-06T11:38:19.957Z,2.72
2023-02-06T11:40:56.857Z,2.70
2023-02-06T11:43:26.881Z,2.72
2023-02-06T11:46:13.796Z,2.63
2023-02-06T11:48:43.718Z,2.33
2023-02-06T11:51:13.909Z,2.50
2023-02-06T11:53:56.867Z,2.63
2023-02-06T11:56:25.500Z,2.60
2023-02-06T11:59:17.905Z,2.75
2023-02-06T12:01:49.164Z,2.75
2023-02-06T12:04:24.000Z,2.45
2023-02-06T12:06:56.562Z,2.60
2023-02-06T12:09:24.730Z,2.70
2023-02-06T12:11:58.095Z,2.95
2023-02-06T12:14:34.109Z,2.67
2023-02-06T12:17:07.038Z,2.60
2023-02-06T12:19:49.778Z,2.90
2023-02-06T12:22:21.974Z,2.67
2023-02-06T12:24:52.838Z,2.25
2023-02-06T12:27:25.962Z,2.78
2023-02-06T12:30:01.732Z,2.75
2023-02-06T12:32:38.010Z,2.33
2023-02-06T12:35:16.854Z,2.53
2023-02-06T12:37:50.546Z,2.40
2023-02-06T12:40:31.764Z,2.30
2023-02-06T12:43:04.083Z,2.50
2023-02-06T12:45:42.176Z,2.28
2023-02-06T12:48:18.061Z,2.58
2023-02-06T12:51:00.206Z,2.08
2023-02-06T12:53:31.919Z,2.28
2023-02-06T12:56:04.903Z,2.25
2023-02-06T12:58:51.617Z,2.40
2023-02-06T13:01:35.702Z,2.63
2023-02-06T13:04:07.864Z,2.45
2023-02-06T13:06:45.025Z,2.30
2023-02-06T13:09:21.410Z,2.58
2023-02-06T13:11:49.809Z,2.30
2023-02-06T13:14:21.580Z,2.20
2023-02-06T13:16:56.856Z,2.45
2023-02-06T13:19:53.034Z,2.47
2023-02-06T13:22:41.262Z,2.38
2023-02-06T13:25:52.340Z,2.20
2023-02-06T13:29:09.543Z,2.50
2023-02-06T13:31:38.562Z,2.42
2023-02-06T13:34:16.879Z,2.50
2023-02-06T13:36:54.547Z,2.80
2023-02-06T13:39:34.707Z,2.30
2023-02-06T13:42:42.441Z,2.88
2023-02-06T13:45:18.284Z,2.22
2023-02-06T13:48:20.510Z,2.97
2023-02-06T13:51:07.340Z,2.53
2023-02-06T13:54:15.835Z,2.63
2023-02-06T13:56:53.948Z,2.10
2023-02-06T13:59:26.095Z,2.20
2023-02-06T14:01:55.174Z,2.90
2023-02-06T14:04:26.570Z,2.40
2023-02-06T14:07:23.210Z,2.40
2023-02-06T14:10:23.585Z,1.77
2023-02-06T14:13:05.204Z,1.95
2023-02-06T14:15:40.930Z,2.15
2023-02-06T14:18:21.952Z,2.00
2023-02-06T14:20:58.281Z,2.50
2023-02-06T14:23:38.964Z,2.28
2023-02-06T14:26:23.879Z,2.00
2023-02-06T14:29:02.297Z,2.20
2023-02-06T14:31:49.046Z,2.33
2023-02-06T14:34:38.957Z,2.35
2023-02-06T14:37:23.194Z,2.10
2023-02-06T14:39:53.473Z,2.25
2023-02-06T14:42:27.453Z,2.07
2023-02-06T14:44:58.868Z,2.35
2023-02-06T14:47:30.996Z,2.22
2023-02-06T14:50:00.791Z,1.90
2023-02-06T14:52:33.200Z,2.15
2023-02-06T14:55:01.913Z,2.45
2023-02-06T14:57:32.886Z,2.10
2023-02-06T15:00:03.159Z,2.00
2023-02-06T15:02:33.891Z,2.00
2023-02-06T15:05:03.403Z,1.88
2023-02-06T15:07:33.893Z,2.30
2023-02-06T15:10:06.884Z,2.33
2023-02-06T15:12:37.119Z,2.17
2023-02-06T15:15:17.847Z,2.23
2023-02-06T15:17:57.791Z,2.22
2023-02-06T15:20:28.850Z,2.53
2023-02-06T15:26:00.552Z,2.05
2023-02-06T15:28:33.121Z,2.10
2023-02-06T15:31:02.475Z,2.20
2023-02-06T15:33:33.174Z,1.80
2023-02-06T15:36:03.738Z,2.00
2023-02-06T15:38:34.374Z,2.25
2023-02-06T15:41:05.575Z,1.98
2023-02-06T15:43:36.637Z,1.90
2023-02-06T15:48:37.420Z,1.92
2023-02-06T15:51:21.126Z,2.17
2023-02-06T15:53:51.048Z,2.45
2023-02-06T15:56:24.627Z,1.88
2023-02-06T15:58:59.789Z,2.00
2023-02-06T16:01:30.480Z,2.28
2023-02-06T16:04:03.936Z,1.95
2023-02-06T16:06:32.636Z,2.22
2023-02-06T16:09:03.025Z,1.90
2023-02-06T16:11:50.661Z,1.90
2023-02-06T16:14:25.188Z,2.50
2023-02-06T16:17:05.905Z,1.90
2023-02-06T16:19:46.653Z,1.90
2023-02-06T16:22:19.908Z,2.00
2023-02-06T16:24:48.968Z,1.52
2023-02-06T16:27:20.660Z,2.00
2023-02-06T16:29:53.871Z,1.90
2023-02-06T16:32:25.624Z,3.05
2023-02-06T16:34:54.406Z,1.90
2023-02-06T16:37:24.648Z,1.90
2023-02-06T16:39:53.525Z,1.80
2023-02-06T16:42:24.039Z,1.88
2023-02-06T16:44:59.490Z,1.55
2023-02-06T16:47:27.825Z,1.70
2023-02-06T16:49:56.017Z,1.88
2023-02-06T16:52:26.772Z,1.98
2023-02-06T16:54:57.806Z,2.03
2023-02-06T16:59:59.068Z,1.67
2023-02-06T17:02:29.100Z,1.60
2023-02-06T17:04:57.341Z,2.40
2023-02-06T17:07:28.044Z,2.20
2023-02-06T17:09:57.903Z,2.05
2023-02-06T17:12:26.519Z,2.15
2023-02-06T17:14:55.671Z,2.20
2023-02-06T17:17:25.420Z,1.90
2023-02-06T17:19:54.495Z,2.10
2023-02-06T17:22:22.827Z,2.42
2023-02-06T17:24:51.103Z,2.05
2023-02-06T17:27:20.936Z,2.10
2023-02-06T17:29:49.778Z,2.10
2023-02-06T17:32:21.995Z,1.90
2023-02-06T17:34:54.256Z,2.53
2023-02-06T17:37:22.746Z,1.92
2023-02-06T17:39:52.572Z,2.28
2023-02-06T17:42:22.027Z,1.80
2023-02-06T17:44:50.964Z,2.05
2023-02-06T17:47:19.113Z,1.80
2023-02-06T17:49:47.891Z,1.90
2023-02-06T17:52:17.693Z,1.95
2023-02-06T17:54:46.335Z,1.90
2023-02-06T17:57:14.815Z,2.00
2023-02-06T17:59:43.182Z,1.83
2023-02-06T18:02:13.821Z,2.03
2023-02-06T18:04:42.231Z,1.98
2023-02-06T18:07:10.451Z,1.90
2023-02-06T18:09:42.085Z,1.85
2023-02-06T18:12:11.032Z,2.15
2023-02-06T18:14:39.928Z,3.25
2023-02-06T18:17:09.114Z,1.70
2023-02-06T18:19:42.194Z,1.65
2023-02-06T18:22:11.162Z,1.70
2023-02-06T18:24:40.796Z,1.45
2023-02-06T18:27:09.779Z,2.00
2023-02-06T18:29:49.304Z,1.77
2023-02-06T18:32:18.872Z,1.60
2023-02-06T18:34:47.365Z,1.50
2023-02-06T18:37:15.687Z,1.98
2023-02-06T18:39:45.236Z,2.05
2023-02-06T18:42:31.338Z,1.50
2023-02-06T18:44:59.549Z,2.33
2023-02-06T18:47:27.811Z,2.15
2023-02-06T18:49:55.987Z,1.80
2023-02-06T18:52:24.264Z,1.90
2023-02-06T18:54:53.797Z,1.73
2023-02-06T18:57:21.988Z,1.67
2023-02-06T18:59:50.200Z,2.20
2023-02-06T19:02:18.502Z,1.77
2023-02-06T19:04:46.740Z,2.03
2023-02-06T19:07:16.309Z,2.13
2023-02-06T19:09:44.662Z,1.83
2023-02-06T19:12:14.324Z,2.28
2023-02-06T19:14:42.517Z,1.73
2023-02-06T19:17:10.749Z,1.75
2023-02-06T19:19:38.892Z,1.88
2023-02-06T19:22:07.042Z,2.53
2023-02-06T19:24:35.211Z,1.48
2023-02-06T19:27:03.355Z,1.70
2023-02-06T19:29:36.253Z,1.95
2023-02-06T19:32:05.868Z,1.60
2023-02-06T19:34:36.341Z,1.67
2023-02-06T19:37:05.137Z,1.73
2023-02-06T19:39:34.420Z,1.80
2023-02-06T19:42:05.604Z,1.67
2023-02-06T19:44:36.339Z,1.92
2023-02-06T19:47:05.145Z,1.83
2023-02-06T19:49:33.688Z,1.67
2023-02-06T19:52:02.172Z,1.75
2023-02-06T19:54:30.524Z,1.60
2023-02-06T19:57:00.632Z,1.83
2023-02-06T19:59:30.851Z,1.70
2023-02-06T20:02:02.027Z,1.47
2023-02-06T20:04:32.847Z,1.73
2023-02-06T20:07:01.392Z,1.35
2023-02-06T20:09:30.648Z,1.35
2023-02-06T20:11:59.331Z,1.60
2023-02-06T20:14:28.054Z,1.85
2023-02-06T20:16:56.734Z,1.42
2023-02-06T20:19:28.283Z,1.70
2023-02-06T20:21:58.485Z,1.60
2023-02-06T20:24:30.210Z,1.40
2023-02-06T20:27:00.715Z,2.03
2023-02-06T20:29:31.472Z,1.60
2023-02-06T20:32:00.757Z,1.73
2023-02-06T20:34:31.184Z,1.40
2023-02-06T20:36:59.656Z,1.60
2023-02-06T20:39:28.782Z,1.48
2023-02-06T20:41:56.943Z,1.65
2023-02-06T20:44:25.269Z,1.60
2023-02-06T20:46:53.576Z,1.67
2023-02-06T20:49:23.875Z,1.50
2023-02-06T20:51:53.932Z,1.40
2023-02-06T20:54:23.332Z,1.38
2023-02-06T20:56:52.017Z,1.60
2023-02-06T20:59:21.205Z,1.52
2023-02-06T21:01:49.854Z,1.60
2023-02-06T21:04:19.474Z,1.70
2023-02-06T21:06:49.982Z,1.40
2023-02-06T21:09:20.136Z,1.23
2023-02-06T21:11:50.341Z,1.25
2023-02-06T21:14:19.541Z,1.60
2023-02-06T21:16:48.266Z,1.27
2023-02-06T21:19:20.164Z,1.20
2023-02-06T21:21:48.856Z,1.85
2023-02-06T21:24:18.014Z,1.48
2023-02-06T21:26:47.621Z,1.45
2023-02-06T21:29:17.046Z,1.55
2023-02-06T21:31:46.194Z,1.73
2023-02-06T21:34:18.018Z,1.40
2023-02-06T21:36:46.676Z,1.30
2023-02-06T21:39:18.039Z,1.25
2023-02-06T21:41:51.588Z,1.30
2023-02-06T21:44:19.855Z,1.38
2023-02-06T21:46:47.993Z,1.55
2023-02-06T21:49:16.335Z,1.30
2023-02-06T21:51:44.814Z,1.27
2023-02-06T21:54:12.985Z,1.55
2023-02-06T21:56:41.180Z,1.38
2023-02-06T21:59:12.601Z,1.40
2023-02-06T22:01:41.462Z,1.52
2023-02-06T22:04:11.097Z,1.65
2023-02-06T22:06:39.652Z,1.23
2023-02-06T22:09:09.910Z,1.33
2023-02-06T22:11:40.049Z,1.33
2023-02-06T22:14:12.008Z,1.55
2023-02-06T22:16:40.523Z,1.40
2023-02-06T22:19:09.297Z,1.65
2023-02-06T22:21:37.529Z,1.27
2023-02-06T22:24:07.398Z,1.38
2023-02-06T22:26:38.769Z,1.42
2023-02-06T22:29:08.279Z,1.60
2023-02-06T22:31:40.295Z,1.23
2023-02-06T22:34:11.924Z,1.48
2023-02-06T22:36:40.401Z,1.70
2023-02-06T22:39:12.493Z,1.55
2023-02-06T22:41:41.932Z,1.20
2023-02-06T22:44:11.622Z,1.33
2023-02-06T22:46:41.337Z,1.52
2023-02-06T22:49:10.788Z,1.38
2023-02-06T22:51:40.961Z,1.40
2023-02-06T22:54:10.456Z,1.53
2023-02-06T22:56:41.127Z,1.40
2023-02-06T22:59:11.662Z,1.50
2023-02-06T23:01:43.006Z,1.40
2023-02-06T23:04:16.220Z,1.35
2023-02-06T23:06:44.794Z,1.40
2023-02-06T23:09:15.789Z,1.60
2023-02-06T23:11:44.530Z,1.33
2023-02-06T23:14:14.841Z,1.60
2023-02-06T23:16:45.344Z,1.40
2023-02-06T23:19:15.255Z,1.65
2023-02-06T23:21:44.500Z,1.63
2023-02-06T23:24:13.590Z,1.58
2023-02-06T23:26:43.474Z,1.30
2023-02-06T23:29:15.709Z,1.70
2023-02-06T23:31:45.807Z,1.40
2023-02-06T23:34:14.640Z,1.43
2023-02-06T23:36:42.784Z,1.27
2023-02-06T23:39:11.998Z,1.50
2023-02-06T23:41:40.284Z,1.55
2023-02-06T23:44:09.753Z,1.48
2023-02-06T23:46:40.156Z,1.20
2023-02-06T23:49:09.770Z,1.38
2023-02-06T23:51:38.973Z,1.48
2023-02-06T23:54:08.206Z,1.30
2023-02-06T23:56:36.985Z,1.50
2023-02-06T23:59:06.750Z,1.27
